Time;durP1;ratioP1;P1;durP2;ratioP2;P2;SDS_P1;SDS_P2;PMS_P1;PMS_P2;Temp;Humidity;BMP_temperature;BMP_pressure;BME280_temperature;BME280_humidity;BME280_pressure;Samples;Min_cycle;Max_cycle;Signal;HPM_P1;HPM_P2
2023/04/20 00:01:15;;;;;;;0.60;0.40;;;;;;;11.78;58.20;101766.53;5045206;28;20057;-77
2023/04/20 00:03:43;;;;;;;0.40;0.40;;;;;;;11.77;58.71;101778.59;5046564;28;20490;-75
2023/04/20 00:06:12;;;;;;;1.33;0.43;;;;;;;11.65;57.41;101776.38;5040686;28;20050;-75
2023/04/20 00:08:42;;;;;;;0.63;0.20;;;;;;;11.56;53.96;101782.91;5042044;28;20152;-75
2023/04/20 00:11:11;;;;;;;2.53;0.50;;;;;;;11.61;56.74;101778.78;5044977;28;20041;-73
2023/04/20 00:13:40;;;;;;;2.65;0.80;;;;;;;11.70;58.16;101777.47;5046207;28;20043;-74
2023/04/20 00:16:09;;;;;;;1.80;0.40;;;;;;;11.81;56.57;101770.13;5048503;28;20513;-73
2023/04/20 00:18:39;;;;;;;0.45;0.30;;;;;;;11.92;59.88;101778.38;5045124;28;20045;-73
2023/04/20 00:21:08;;;;;;;0.98;0.47;;;;;;;11.96;56.92;101775.09;5042854;28;20112;-73
2023/04/20 00:23:36;;;;;;;1.75;0.52;;;;;;;12.07;56.30;101773.81;5046174;28;20056;-74
2023/04/20 00:26:05;;;;;;;1.42;0.68;;;;;;;12.18;57.75;101782.00;5046279;28;20522;-73
2023/04/20 00:28:34;;;;;;;1.63;0.28;;;;;;;12.22;51.25;101786.47;5044076;28;20045;-73
2023/04/20 00:31:02;;;;;;;2.40;0.52;;;;;;;12.25;51.69;101786.59;5040852;28;20049;-72
2023/04/20 00:33:31;;;;;;;2.63;1.02;;;;;;;12.30;52.83;101798.06;5056496;28;20297;-72
2023/04/20 00:36:01;;;;;;;6.22;1.50;;;;;;;12.29;52.74;101792.81;5066434;28;20048;-73
2023/04/20 00:38:30;;;;;;;1.55;0.30;;;;;;;12.39;52.91;101792.31;5059165;28;20048;-73
2023/04/20 00:40:59;;;;;;;2.78;0.65;;;;;;;12.42;49.47;101795.06;5063833;28;20041;-72
2023/04/20 00:43:28;;;;;;;2.28;0.55;;;;;;;12.38;49.32;101797.47;5062661;28;20048;-73
2023/04/20 00:45:56;;;;;;;2.17;0.35;;;;;;;12.31;50.97;101793.75;5065683;28;20055;-75
2023/04/20 00:48:25;;;;;;;2.85;0.75;;;;;;;12.31;50.56;101799.81;5059651;28;21011;-74
2023/04/20 00:50:54;;;;;;;2.25;0.40;;;;;;;12.31;49.10;101799.81;5066455;28;20048;-74
2023/04/20 00:53:24;;;;;;;1.45;0.57;;;;;;;12.29;48.98;101808.38;5057195;28;20052;-75
2023/04/20 00:55:53;;;;;;;5.05;0.90;;;;;;;12.30;50.91;101803.25;5062378;28;20769;-73
2023/04/20 00:58:29;;;;;;;1.33;0.52;;;;;;;12.35;51.29;101812.09;4720652;28;9619772;-74
2023/04/20 01:01:04;;;;;;;1.67;0.50;;;;;;;12.33;47.21;101808.56;5040684;28;20100;-74
2023/04/20 01:03:33;;;;;;;1.13;0.55;;;;;;;12.24;48.46;101809.91;5046418;28;20041;-75
2023/04/20 01:06:02;;;;;;;4.68;0.88;;;;;;;12.13;48.63;101799.09;5065266;28;20052;-75
2023/04/20 01:08:32;;;;;;;2.50;0.55;;;;;;;12.07;48.36;101814.41;5063003;28;20071;-74
2023/04/20 01:11:01;;;;;;;1.85;0.50;;;;;;;12.02;50.39;101821.13;5064064;28;20047;-74
2023/04/20 01:13:30;;;;;;;1.42;0.63;;;;;;;12.02;49.61;101824.59;5069824;28;20052;-74
2023/04/20 01:16:00;;;;;;;3.00;0.52;;;;;;;11.98;50.39;101825.31;5069661;28;20619;-76
2023/04/20 01:18:29;;;;;;;0.75;0.45;;;;;;;11.90;50.81;101824.97;5067083;28;20613;-75
2023/04/20 01:20:57;;;;;;;3.53;0.70;;;;;;;11.84;48.56;101832.50;5064469;28;20071;-76
2023/04/20 01:23:28;;;;;;;4.78;0.47;;;;;;;11.83;47.03;101829.84;5065338;28;20072;-76
2023/04/20 01:25:56;;;;;;;1.85;0.40;;;;;;;11.66;47.10;101831.69;5061402;28;20057;-75
2023/04/20 01:28:25;;;;;;;1.20;0.50;;;;;;;11.59;48.21;101840.94;5066290;28;20045;-75
2023/04/20 01:30:54;;;;;;;1.30;0.40;;;;;;;11.55;47.38;101848.53;5062561;28;20090;-74
2023/04/20 01:33:22;;;;;;;1.48;0.63;;;;;;;11.47;48.46;101849.06;5065098;28;20059;-74
2023/04/20 01:35:52;;;;;;;5.25;0.70;;;;;;;11.42;50.15;101849.69;5064432;28;20044;-75
2023/04/20 01:38:22;;;;;;;2.78;0.80;;;;;;;11.43;50.07;101854.03;5068968;28;20080;-76
2023/04/20 01:40:53;;;;;;;3.08;0.93;;;;;;;11.43;50.03;101854.94;5059786;28;20078;-75
2023/04/20 01:43:23;;;;;;;1.73;0.68;;;;;;;11.44;50.37;101861.91;5063464;28;20422;-74
2023/04/20 01:45:51;;;;;;;2.40;0.60;;;;;;;11.44;48.91;101856.72;5067990;28;20048;-75
2023/04/20 01:48:20;;;;;;;1.05;0.55;;;;;;;11.44;50.56;101861.00;5065716;28;20052;-75
2023/04/20 01:50:52;;;;;;;2.10;0.80;;;;;;;11.45;50.21;101855.91;5061247;28;20045;-75
2023/04/20 01:53:21;;;;;;;3.30;0.75;;;;;;;11.45;50.54;101867.97;5066026;28;20126;-74
2023/04/20 01:55:50;;;;;;;3.92;0.60;;;;;;;11.44;50.15;101864.47;5065955;28;20387;-74
2023/04/20 01:58:20;;;;;;;2.05;1.00;;;;;;;11.42;49.48;101871.31;5047982;28;20045;-72
2023/04/20 02:00:49;;;;;;;2.50;0.75;;;;;;;11.39;48.87;101878.97;5049769;28;20072;-74
2023/04/20 02:03:18;;;;;;;3.20;0.70;;;;;;;11.37;49.06;101884.91;5047021;28;20172;-76
2023/04/20 02:05:47;;;;;;;2.10;0.75;;;;;;;11.32;49.08;101882.09;5041429;28;20045;-76
2023/04/20 02:08:16;;;;;;;4.10;0.77;;;;;;;11.30;47.73;101894.97;5047111;28;20573;-75
2023/04/20 02:10:44;;;;;;;2.10;1.10;;;;;;;11.25;48.91;101888.72;5051273;28;20041;-76
2023/04/20 02:13:13;;;;;;;3.03;0.98;;;;;;;11.20;49.63;101891.88;5052040;28;20049;-75
2023/04/20 02:15:44;;;;;;;0.60;0.47;;;;;;;11.15;49.52;101901.16;5052987;28;20045;-75
2023/04/20 02:18:14;;;;;;;1.40;0.73;;;;;;;11.11;49.06;101895.84;5054484;28;20670;-76
2023/04/20 02:20:43;;;;;;;3.42;0.80;;;;;;;11.07;47.55;101895.66;5059928;28;20041;-77
2023/04/20 02:23:13;;;;;;;2.35;0.68;;;;;;;11.02;48.89;101891.97;5059597;28;20056;-76
2023/04/20 02:25:42;;;;;;;1.70;0.80;;;;;;;10.94;49.13;101901.94;5057994;28;20132;-76
2023/04/20 02:28:10;;;;;;;3.22;0.85;;;;;;;10.89;49.24;101900.88;5058116;28;20073;-79
2023/04/20 02:30:46;;;;;;;3.25;1.02;;;;;;;10.82;50.26;101906.56;5062504;28;20098;-76
2023/04/20 02:33:16;;;;;;;1.50;0.93;;;;;;;10.78;50.14;101907.25;5060241;28;20129;-77
2023/04/20 02:35:45;;;;;;;5.07;2.10;;;;;;;10.71;50.12;101910.34;5065574;28;20405;-77
2023/04/20 02:38:13;;;;;;;3.92;0.88;;;;;;;10.62;50.15;101910.81;5060854;28;20476;-75
2023/04/20 02:40:42;;;;;;;2.30;0.95;;;;;;;10.57;50.78;101917.47;5058529;28;20094;-76
2023/04/20 02:43:11;;;;;;;2.67;1.20;;;;;;;10.50;52.00;101921.47;5067915;28;20037;-74
2023/04/20 02:45:40;;;;;;;2.97;0.75;;;;;;;10.46;51.74;101924.69;5066645;28;20037;-75
2023/04/20 02:48:08;;;;;;;1.70;1.10;;;;;;;10.37;51.40;101926.84;5064758;28;20136;-77
2023/04/20 02:50:39;;;;;;;3.28;1.08;;;;;;;10.30;51.48;101925.66;5066714;28;20509;-75
2023/04/20 02:53:07;;;;;;;4.72;0.75;;;;;;;10.25;51.59;101929.69;5063654;28;20105;-76
2023/04/20 02:55:36;;;;;;;1.60;0.77;;;;;;;10.20;51.81;101937.22;5061285;28;20644;-74
2023/04/20 02:58:05;;;;;;;4.63;1.27;;;;;;;10.12;52.03;101943.69;5060855;28;20544;-77
2023/04/20 03:00:34;;;;;;;1.63;0.88;;;;;;;10.06;52.82;101944.28;5049811;28;20045;-76
2023/04/20 03:03:03;;;;;;;2.65;1.23;;;;;;;10.00;52.55;101943.09;5045572;28;20159;-76
2023/04/20 03:05:32;;;;;;;4.82;1.17;;;;;;;9.93;53.46;101948.75;5063760;28;20242;-76
2023/04/20 03:08:04;;;;;;;2.45;1.33;;;;;;;9.84;53.95;101946.56;5063538;28;20095;-76
2023/04/20 03:10:32;;;;;;;4.05;1.02;;;;;;;9.81;53.16;101952.47;5067825;28;20049;-76
2023/04/20 03:13:01;;;;;;;5.32;1.60;;;;;;;9.73;53.57;101956.34;5061962;28;20033;-76
2023/04/20 03:15:30;;;;;;;8.73;1.73;;;;;;;9.68;53.81;101960.41;5061906;28;20053;-75
2023/04/20 03:17:58;;;;;;;3.15;1.00;;;;;;;9.59;54.97;101957.34;5056817;28;20043;-80
2023/04/20 03:20:27;;;;;;;1.70;0.88;;;;;;;9.52;54.72;101958.69;5061534;28;20533;-79
2023/04/20 03:22:56;;;;;;;5.43;1.35;;;;;;;9.47;58.23;101965.31;5068128;28;20072;-80
2023/04/20 03:25:26;;;;;;;5.57;1.65;;;;;;;9.41;60.05;101962.41;5066537;28;20604;-79
2023/04/20 03:27:55;;;;;;;3.53;1.00;;;;;;;9.35;60.60;101970.72;5063946;28;20040;-79
2023/04/20 03:30:23;;;;;;;5.50;1.30;;;;;;;9.24;60.23;101971.84;5062070;28;20052;-79
2023/04/20 03:32:52;;;;;;;6.88;1.45;;;;;;;9.09;59.71;101984.78;5065627;28;20053;-77
2023/04/20 03:35:21;;;;;;;2.95;0.93;;;;;;;8.99;60.18;101983.41;5064166;28;20679;-75
2023/04/20 03:37:50;;;;;;;4.82;1.10;;;;;;;8.95;60.97;101989.19;5064499;28;20061;-78
2023/04/20 03:40:18;;;;;;;1.00;0.70;;;;;;;8.90;60.65;102000.94;5061156;28;20110;-77
2023/04/20 03:42:49;;;;;;;1.77;0.93;;;;;;;8.85;61.76;102002.41;5066317;28;20045;-77
2023/04/20 03:45:18;;;;;;;4.13;1.15;;;;;;;8.78;62.12;102010.59;5064019;28;20059;-77
2023/04/20 03:47:46;;;;;;;4.38;1.70;;;;;;;8.70;63.04;102006.69;5068067;28;20076;-76
2023/04/20 03:50:15;;;;;;;4.47;1.00;;;;;;;8.65;64.72;102019.31;5068220;28;20162;-78
2023/04/20 03:52:44;;;;;;;10.35;1.10;;;;;;;8.57;64.61;102021.47;5060796;28;20301;-78
2023/04/20 03:55:13;;;;;;;3.55;0.95;;;;;;;8.52;67.87;102033.22;5054585;28;20135;-76
2023/04/20 03:57:41;;;;;;;3.90;1.23;;;;;;;8.44;65.13;102031.88;5059394;28;20122;-75
2023/04/20 04:00:13;;;;;;;4.78;1.30;;;;;;;8.37;66.03;102040.91;5018183;28;20155;-75
2023/04/20 04:02:41;;;;;;;3.78;0.82;;;;;;;8.31;66.29;102037.94;5017403;28;20052;-78
2023/04/20 04:05:10;;;;;;;4.40;1.08;;;;;;;8.27;67.32;102036.00;5015361;28;20052;-78
2023/04/20 04:07:39;;;;;;;2.55;0.95;;;;;;;8.20;68.69;102044.19;5015478;28;20144;-78
2023/04/20 04:10:09;;;;;;;4.10;1.02;;;;;;;8.13;67.22;102042.94;5019239;28;20053;-76
2023/04/20 04:12:37;;;;;;;3.03;0.88;;;;;;;8.07;67.38;102047.69;5013333;28;20464;-77
2023/04/20 04:15:07;;;;;;;1.50;0.70;;;;;;;8.02;66.92;102048.19;5016194;28;20049;-77
2023/04/20 04:17:37;;;;;;;4.47;1.13;;;;;;;7.95;68.14;102060.75;5022144;28;20128;-81
2023/04/20 04:20:08;;;;;;;2.50;0.52;;;;;;;7.87;69.38;102056.78;5019891;28;20219;-82
2023/04/20 04:22:36;;;;;;;4.28;1.02;;;;;;;7.72;70.04;102054.19;5019686;28;20053;-82
2023/04/20 04:25:06;;;;;;;5.30;0.77;;;;;;;7.51;73.47;102042.53;5017072;28;20045;-77
2023/04/20 04:27:36;;;;;;;3.13;1.05;;;;;;;7.51;76.13;102058.91;5027105;28;20056;-77
2023/04/20 04:30:05;;;;;;;4.45;1.45;;;;;;;7.48;77.18;102070.66;5010076;28;20056;-76
2023/04/20 04:32:34;;;;;;;4.57;1.05;;;;;;;7.44;77.15;102068.69;5022305;28;20044;-78
2023/04/20 04:35:05;;;;;;;2.45;1.25;;;;;;;7.29;78.61;102079.81;5027565;28;20092;-77
2023/04/20 04:37:34;;;;;;;8.68;1.23;;;;;;;7.09;78.53;102077.63;5021995;28;20072;-78
2023/04/20 04:40:06;;;;;;;2.05;0.85;;;;;;;6.91;78.03;102083.34;5030598;28;20495;-78
2023/04/20 04:42:34;;;;;;;5.40;1.20;;;;;;;6.83;79.14;102097.41;5025349;28;20429;-78
2023/04/20 04:45:03;;;;;;;2.92;0.77;;;;;;;6.80;79.13;102099.75;5033994;28;20358;-76
2023/04/20 04:47:36;;;;;;;1.25;1.02;;;;;;;6.80;78.97;102096.31;5034321;28;20081;-80
2023/04/20 04:50:08;;;;;;;3.53;1.00;;;;;;;6.78;78.63;102095.31;5026663;28;20212;-77
2023/04/20 04:52:37;;;;;;;8.98;1.10;;;;;;;6.73;79.13;102102.72;5028806;28;20055;-81
2023/04/20 04:55:08;;;;;;;4.72;1.33;;;;;;;6.71;78.96;102104.28;5029980;28;20046;-79
2023/04/20 04:57:37;;;;;;;2.90;0.60;;;;;;;6.67;78.60;102102.34;5027202;27;20053;-76
2023/04/20 05:00:10;;;;;;;4.35;1.40;;;;;;;6.63;78.83;102106.38;5045851;28;20114;-77
2023/04/20 05:02:39;;;;;;;5.15;0.90;;;;;;;6.57;81.26;102102.50;5049185;28;20048;-78
2023/04/20 05:05:10;;;;;;;1.42;0.75;;;;;;;6.41;81.75;102111.72;5048089;28;20083;-76
2023/04/20 05:07:39;;;;;;;3.08;1.17;;;;;;;6.26;82.77;102118.41;5048147;28;20045;-77
2023/04/20 05:10:09;;;;;;;2.85;0.88;;;;;;;6.14;83.79;102113.31;5043489;28;20516;-76
2023/04/20 05:12:37;;;;;;;6.35;1.00;;;;;;;6.06;84.19;102124.75;5049063;28;20148;-76
2023/04/20 05:15:07;;;;;;;2.33;1.08;;;;;;;6.07;85.22;102119.72;5042037;28;20131;-77
2023/04/20 05:17:36;;;;;;;7.35;0.90;;;;;;;6.07;85.22;102124.84;5044839;28;20060;-77
2023/04/20 05:20:05;;;;;;;3.50;1.20;;;;;;;6.09;84.66;102124.94;5048667;28;20128;-76
2023/04/20 05:22:35;;;;;;;8.93;1.20;;;;;;;6.09;84.13;102119.81;5044583;28;20159;-77
2023/04/20 05:25:05;;;;;;;4.47;1.33;;;;;;;6.07;84.25;102124.84;5046899;28;20061;-76
2023/04/20 05:27:34;;;;;;;3.35;1.55;;;;;;;6.04;83.65;102124.63;5047033;28;20049;-78
2023/04/20 05:30:03;;;;;;;3.08;0.93;;;;;;;6.02;83.87;102123.63;5047867;28;20045;-77
2023/04/20 05:32:32;;;;;;;2.97;1.02;;;;;;;6.01;84.09;102118.41;5043608;28;20056;-76
2023/04/20 05:35:01;;;;;;;1.95;1.00;;;;;;;5.99;84.59;102120.84;5045743;28;20057;-76
2023/04/20 05:37:29;;;;;;;1.65;0.77;;;;;;;5.98;84.43;102119.06;5041150;28;20106;-76
2023/04/20 05:39:59;;;;;;;3.08;1.45;;;;;;;5.96;85.03;102120.66;5044922;28;20053;-76
2023/04/20 05:42:28;;;;;;;6.07;1.88;;;;;;;5.94;85.20;102119.66;5046593;28;20119;-77
2023/04/20 05:44:57;;;;;;;4.38;1.25;;;;;;;5.92;85.32;102125.44;5036979;28;20061;-77
2023/04/20 05:47:26;;;;;;;2.67;1.33;;;;;;;5.73;86.46;102119.00;5047413;28;20045;-77
2023/04/20 05:49:54;;;;;;;3.00;1.02;;;;;;;5.74;88.67;102137.84;5040655;28;20041;-77
2023/04/20 05:52:23;;;;;;;3.40;1.65;;;;;;;5.64;88.93;102137.19;5041713;28;20053;-77
2023/04/20 05:54:52;;;;;;;4.22;1.33;;;;;;;5.59;88.08;102141.13;5037462;28;20491;-77
2023/04/20 05:57:23;;;;;;;2.97;0.90;;;;;;;5.58;87.73;102146.13;5045138;28;20475;-77
2023/04/20 05:59:51;;;;;;;2.15;0.82;;;;;;;5.60;87.51;102147.16;5047397;28;20104;-76
2023/04/20 06:02:20;;;;;;;2.35;1.40;;;;;;;5.62;87.88;102143.00;5047671;28;20277;-77
2023/04/20 06:04:48;;;;;;;2.50;1.00;;;;;;;5.64;87.42;102155.19;5049045;28;20155;-77
2023/04/20 06:07:17;;;;;;;1.58;0.93;;;;;;;5.63;86.97;102158.50;5039229;28;20057;-77
2023/04/20 06:09:46;;;;;;;3.83;1.40;;;;;;;5.62;87.29;102156.75;5037683;28;20597;-77
2023/04/20 06:12:14;;;;;;;2.95;1.40;;;;;;;5.62;87.34;102154.16;5033656;28;20085;-77
2023/04/20 06:14:45;;;;;;;3.08;1.20;;;;;;;5.62;88.04;102161.00;5039441;28;20036;-77
2023/04/20 06:17:13;;;;;;;3.60;1.05;;;;;;;5.61;87.95;102160.09;5040832;28;20139;-76
2023/04/20 06:19:42;;;;;;;2.35;1.17;;;;;;;5.60;88.22;102158.31;5033942;28;20132;-77
2023/04/20 06:22:11;;;;;;;2.17;1.05;;;;;;;5.58;89.41;102165.00;5033055;28;20696;-77
2023/04/20 06:24:41;;;;;;;3.88;1.67;;;;;;;5.59;89.13;102166.81;5040945;28;20053;-77
2023/04/20 06:27:09;;;;;;;2.10;1.23;;;;;;;5.59;89.17;102165.88;5045897;28;20517;-78
2023/04/20 06:29:38;;;;;;;4.80;1.65;;;;;;;5.59;89.76;102169.38;5044712;28;20041;-76
2023/04/20 06:32:08;;;;;;;9.73;3.75;;;;;;;5.59;89.67;102187.34;5042412;28;20111;-76
2023/04/20 06:34:37;;;;;;;12.57;2.95;;;;;;;5.58;89.91;102182.09;5049274;28;20048;-76
2023/04/20 06:37:08;;;;;;;6.45;2.70;;;;;;;5.55;90.44;102190.47;5041047;28;20183;-76
2023/04/20 06:39:36;;;;;;;9.68;1.35;;;;;;;5.48;92.48;102190.81;5044242;28;20049;-76
2023/04/20 06:42:05;;;;;;;9.43;1.63;;;;;;;5.46;93.95;102194.94;5041413;28;20052;-76
2023/04/20 06:44:34;;;;;;;2.95;0.95;;;;;;;5.45;93.08;102198.25;5042857;28;20049;-77
2023/04/20 06:47:02;;;;;;;3.60;0.95;;;;;;;5.46;93.08;102197.50;5038602;28;20049;-76
2023/04/20 06:49:33;;;;;;;8.23;1.60;;;;;;;5.49;92.88;102200.28;5045113;28;20134;-76
2023/04/20 06:52:01;;;;;;;4.40;1.00;;;;;;;5.46;93.40;102206.09;5040549;28;20096;-77
2023/04/20 06:54:30;;;;;;;4.22;1.52;;;;;;;5.38;93.33;102219.13;5039982;28;20051;-77
2023/04/20 06:57:00;;;;;;;3.17;1.55;;;;;;;5.34;94.11;102219.69;5039486;28;20072;-76
2023/04/20 06:59:28;;;;;;;3.38;1.17;;;;;;;5.35;94.60;102217.22;5044512;28;20089;-76
2023/04/20 07:01:57;;;;;;;2.08;0.95;;;;;;;5.40;94.61;102213.31;5046407;28;20033;-76
2023/04/20 07:04:26;;;;;;;2.95;1.08;;;;;;;5.39;93.51;102208.09;5046008;28;20049;-76
2023/04/20 07:06:56;;;;;;;4.63;1.40;;;;;;;5.38;92.87;102206.28;5046241;28;20080;-76
2023/04/20 07:09:25;;;;;;;4.95;1.33;;;;;;;5.36;92.73;102211.34;5045086;28;20045;-76
2023/04/20 07:11:55;;;;;;;1.25;0.68;;;;;;;5.39;92.75;102218.38;5044320;28;20056;-76
2023/04/20 07:14:23;;;;;;;1.67;0.95;;;;;;;5.40;92.28;102218.44;5044933;28;20052;-76
2023/04/20 07:16:53;;;;;;;1.92;0.80;;;;;;;5.40;91.60;102221.03;5045012;28;20057;-76
2023/04/20 07:19:22;;;;;;;2.95;0.95;;;;;;;5.40;90.69;102217.56;5036939;28;20044;-76
2023/04/20 07:21:51;;;;;;;2.28;1.00;;;;;;;5.39;90.95;102224.38;5043301;28;20124;-76
2023/04/20 07:24:21;;;;;;;2.28;0.93;;;;;;;5.40;91.20;102226.16;5042915;28;20049;-77
2023/04/20 07:26:50;;;;;;;4.70;1.20;;;;;;;5.39;91.01;102237.22;5038599;28;20049;-76
2023/04/20 07:29:19;;;;;;;6.43;0.90;;;;;;;5.38;90.48;102229.38;5046919;28;20064;-76
2023/04/20 07:31:47;;;;;;;4.13;0.82;;;;;;;5.36;90.29;102228.38;5039701;28;20053;-76
2023/04/20 07:34:16;;;;;;;2.05;1.00;;;;;;;5.33;90.95;102235.88;5041998;28;20077;-75
2023/04/20 07:36:44;;;;;;;6.25;1.00;;;;;;;5.28;91.25;102235.53;5044356;28;20057;-76
2023/04/20 07:39:14;;;;;;;2.45;0.63;;;;;;;5.25;91.29;102240.44;5044602;28;20099;-76
2023/04/20 07:41:44;;;;;;;1.38;0.73;;;;;;;5.21;91.54;102234.16;5042883;28;20091;-78
2023/04/20 07:44:14;;;;;;;2.40;1.20;;;;;;;5.17;91.32;102229.59;5040733;28;20425;-76
2023/04/20 07:46:43;;;;;;;2.10;1.58;;;;;;;5.15;91.16;102237.94;5041019;28;20053;-75
2023/04/20 07:49:11;;;;;;;2.38;1.27;;;;;;;5.12;91.91;102233.47;5045713;28;20053;-74
2023/04/20 07:51:40;;;;;;;5.50;0.93;;;;;;;5.11;91.72;102236.84;5046427;28;20044;-75
2023/04/20 07:54:09;;;;;;;4.50;0.98;;;;;;;5.09;91.87;102238.41;5044022;28;20533;-75
2023/04/20 07:56:37;;;;;;;3.20;1.27;;;;;;;5.06;91.87;102240.72;5046626;28;20773;-76
2023/04/20 07:59:08;;;;;;;2.97;0.65;;;;;;;5.03;92.28;102241.38;5038907;28;20506;-76
2023/04/20 08:01:36;;;;;;;7.13;1.30;;;;;;;5.00;92.40;102242.84;5042179;28;20038;-76
2023/04/20 08:04:05;;;;;;;5.05;1.77;;;;;;;4.96;92.42;102254.50;5048954;28;20685;-75
2023/04/20 08:06:34;;;;;;;7.30;2.47;;;;;;;4.93;92.67;102246.59;5046277;28;20076;-76
2023/04/20 08:09:03;;;;;;;4.47;1.65;;;;;;;4.89;92.86;102253.94;5047025;28;20040;-76
2023/04/20 08:11:32;;;;;;;5.72;2.03;;;;;;;4.86;93.49;102248.59;5047218;28;20049;-76
2023/04/20 08:14:01;;;;;;;4.18;1.77;;;;;;;4.80;93.25;102244.75;5044102;28;20076;-76
2023/04/20 08:16:31;;;;;;;4.13;2.05;;;;;;;4.76;92.94;102252.97;5043396;28;22060;-77
2023/04/20 08:19:00;;;;;;;6.38;2.17;;;;;;;4.74;93.69;102248.53;5048333;28;20049;-75
2023/04/20 08:21:29;;;;;;;5.82;2.10;;;;;;;4.73;93.52;102251.88;5046342;28;20117;-76
2023/04/20 08:23:57;;;;;;;3.97;2.72;;;;;;;4.71;93.58;102249.19;5050957;28;20041;-75
2023/04/20 08:26:26;;;;;;;6.75;2.10;;;;;;;4.68;93.47;102248.94;5043765;28;20045;-75
2023/04/20 08:28:55;;;;;;;6.00;2.17;;;;;;;4.65;93.25;102247.81;5045803;28;20045;-75
2023/04/20 08:31:23;;;;;;;2.63;1.55;;;;;;;4.64;93.96;102243.47;5045729;28;20045;-75
2023/04/20 08:33:54;;;;;;;5.95;2.03;;;;;;;4.62;93.85;102243.34;5045409;28;20045;-76
2023/04/20 08:36:23;;;;;;;6.35;1.77;;;;;;;4.60;94.06;102239.75;5046877;28;20729;-75
2023/04/20 08:38:56;;;;;;;6.85;2.50;;;;;;;4.57;93.78;102245.56;5045646;28;20541;-74
2023/04/20 08:41:25;;;;;;;;;;;;;;;4.53;94.09;102246.09;5036789;28;20050;-75
2023/04/20 08:43:53;;;;;;;7.28;1.80;;;;;;;4.52;93.94;102251.13;5047183;28;19932;-75
2023/04/20 08:46:23;;;;;;;3.00;1.75;;;;;;;4.47;93.51;102247.31;5048396;28;20052;-75
2023/04/20 08:48:54;;;;;;;3.05;1.20;;;;;;;4.44;93.92;102241.91;5050274;28;20055;-76
2023/04/20 08:51:24;;;;;;;2.63;1.25;;;;;;;4.39;94.88;102250.13;5045707;28;20209;-75
2023/04/20 08:53:53;;;;;;;7.47;1.60;;;;;;;4.37;95.27;102249.13;5041480;28;20495;-75
2023/04/20 08:56:32;;;;;;;1.83;1.33;;;;;;;4.37;96.30;102246.56;5040497;28;20045;-75
2023/04/20 08:59:02;;;;;;;3.10;1.15;;;;;;;4.35;96.40;102248.13;5048684;28;20072;-75
2023/04/20 09:01:31;;;;;;;2.80;1.05;;;;;;;4.34;96.64;102250.56;5040798;28;20196;-76
2023/04/20 09:04:02;;;;;;;3.67;1.50;;;;;;;4.33;96.61;102248.75;5049196;28;20104;-75
2023/04/20 09:06:31;;;;;;;3.20;1.20;;;;;;;4.32;96.77;102249.53;5044188;28;20482;-76
2023/04/20 09:09:00;;;;;;;2.88;1.10;;;;;;;4.31;97.03;102248.66;5038457;28;20059;-75
2023/04/20 09:11:30;;;;;;;2.03;1.08;;;;;;;4.30;96.84;102248.53;5037311;28;20156;-77
2023/04/20 09:14:03;;;;;;;1.90;1.08;;;;;;;4.28;96.70;102250.06;5043494;28;20136;-76
2023/04/20 09:16:33;;;;;;;2.58;1.00;;;;;;;4.27;96.97;102253.41;5044153;28;20056;-76
2023/04/20 09:19:03;;;;;;;3.67;1.40;;;;;;;4.25;97.06;102254.97;5037441;28;20042;-76
2023/04/20 09:21:33;;;;;;;3.00;1.38;;;;;;;4.25;97.35;102237.91;5043025;28;20483;-76
2023/04/20 09:24:02;;;;;;;6.22;1.35;;;;;;;4.23;96.44;102247.16;5043035;28;20107;-77
2023/04/20 09:26:34;;;;;;;1.73;1.08;;;;;;;4.21;97.30;102243.56;5043688;28;20534;-76
2023/04/20 09:29:03;;;;;;;5.20;0.93;;;;;;;4.20;97.93;102244.34;5045779;28;20391;-76
2023/04/20 09:31:32;;;;;;;1.45;0.82;;;;;;;4.19;97.14;102239.97;5047511;28;20588;-75
2023/04/20 09:34:04;;;;;;;1.80;1.20;;;;;;;4.18;97.37;102249.34;5042994;28;20044;-75
2023/04/20 09:36:40;;;;;;;3.38;1.10;;;;;;;4.14;97.74;102246.41;5043173;28;20056;-75
2023/04/20 09:39:11;;;;;;;4.28;1.00;;;;;;;4.18;97.82;102248.47;5037533;28;20557;-76
2023/04/20 09:41:41;;;;;;;1.70;0.90;;;;;;;4.17;96.79;102251.81;5045064;28;20045;-76
2023/04/20 09:44:10;;;;;;;1.30;0.90;;;;;;;4.14;96.45;102248.97;5046134;28;20047;-76
2023/04/20 09:46:40;;;;;;;1.13;0.70;;;;;;;4.13;97.35;102249.78;5042088;28;20059;-76
2023/04/20 09:49:12;;;;;;;6.43;0.95;;;;;;;4.12;97.52;102247.97;5042347;28;20064;-76
2023/04/20 09:51:43;;;;;;;2.78;1.10;;;;;;;4.11;98.26;102251.31;5043729;28;20053;-76
2023/04/20 09:54:13;;;;;;;3.08;1.08;;;;;;;4.11;97.89;102257.31;5038167;28;20139;-77
2023/04/20 09:56:42;;;;;;;0.63;0.52;;;;;;;4.08;97.53;102246.84;5039497;28;20509;-77
2023/04/20 09:59:11;;;;;;;1.90;1.08;;;;;;;4.06;98.13;102242.38;5029363;28;20069;-75
2023/04/20 10:01:39;;;;;;;1.92;0.70;;;;;;;4.05;97.90;102249.13;5024565;28;20038;-75
2023/04/20 10:04:12;;;;;;;2.30;1.02;;;;;;;4.04;98.11;102246.47;5024509;28;20056;-76
2023/04/20 10:06:52;;;;;;;3.22;1.48;;;;;;;4.01;97.12;102251.34;5016722;28;20053;-76
2023/04/20 10:09:23;;;;;;;4.57;1.00;;;;;;;3.98;97.02;102245.19;5021137;28;20487;-76
2023/04/20 10:11:52;;;;;;;2.33;1.27;;;;;;;3.95;96.12;102250.06;5016935;28;20530;-76
2023/04/20 10:14:29;;;;;;;1.95;1.13;;;;;;;3.92;97.50;102248.97;5017686;28;20052;-75
2023/04/20 10:17:02;;;;;;;1.80;0.93;;;;;;;3.91;96.51;102247.16;5024378;28;20059;-76
2023/04/20 10:19:43;;;;;;;2.03;1.25;;;;;;;3.89;96.98;102244.44;5024150;28;20136;-75
2023/04/20 10:22:14;;;;;;;0.88;0.80;;;;;;;3.82;96.75;102236.16;5019629;28;20091;-77
2023/04/20 10:24:43;;;;;;;0.70;0.60;;;;;;;3.84;97.34;102250.88;5025360;28;20115;-75
2023/04/20 10:27:19;;;;;;;3.20;1.02;;;;;;;3.80;97.74;102243.72;5018156;28;20547;-75
2023/04/20 10:29:48;;;;;;;0.88;0.63;;;;;;;3.78;97.23;102250.41;5014577;28;20046;-75
2023/04/20 10:32:24;;;;;;;1.25;0.85;;;;;;;3.76;97.32;102257.06;5020669;28;20510;-75
2023/04/20 10:35:05;;;;;;;1.30;1.10;;;;;;;3.72;97.08;102268.72;5018045;28;20095;-75
2023/04/20 10:37:34;;;;;;;2.88;1.17;;;;;;;3.71;97.65;102259.25;5017145;28;20613;-77
2023/04/20 10:40:04;;;;;;;1.70;0.77;;;;;;;3.70;98.00;102264.25;5024638;28;20076;-75
2023/04/20 10:42:43;;;;;;;1.25;1.00;;;;;;;3.69;97.20;102272.72;5015721;28;20538;-75
2023/04/20 10:45:12;;;;;;;5.10;1.25;;;;;;;3.68;97.52;102268.34;5024035;28;20048;-75
2023/04/20 10:47:41;;;;;;;2.60;1.98;;;;;;;3.63;97.46;102264.50;5020474;28;21167;-75
2023/04/20 10:50:14;;;;;;;3.25;1.67;;;;;;;3.66;97.01;102269.88;5014183;28;20701;-76
2023/04/20 10:52:43;;;;;;;2.05;0.80;;;;;;;3.64;98.04;102264.66;5019770;28;20041;-76
2023/04/20 10:55:22;;;;;;;1.85;0.68;;;;;;;3.62;97.81;102260.16;5013809;28;20691;-75
2023/04/20 10:57:52;;;;;;;2.53;1.20;;;;;;;3.59;97.75;102267.59;5026407;28;20128;-76
2023/04/20 11:00:22;;;;;;;1.42;1.15;;;;;;;3.56;97.78;102263.13;5041661;27;20053;-76
2023/04/20 11:02:52;;;;;;;1.48;0.95;;;;;;;3.52;97.29;102263.63;5042501;28;20530;-75
2023/04/20 11:05:24;;;;;;;4.07;0.82;;;;;;;3.48;97.13;102265.06;5041349;28;20916;-76
2023/04/20 11:07:54;;;;;;;5.05;1.27;;;;;;;3.47;98.82;102263.25;5046352;28;20534;-76
2023/04/20 11:10:23;;;;;;;1.83;0.88;;;;;;;3.47;98.34;102268.38;5040061;28;20149;-77
2023/04/20 11:12:53;;;;;;;2.20;1.33;;;;;;;3.48;98.53;102274.38;5044543;28;20072;-76
2023/04/20 11:15:32;;;;;;;2.33;0.95;;;;;;;3.46;99.42;102268.22;5042054;28;20135;-75
2023/04/20 11:18:09;;;;;;;1.30;0.82;;;;;;;3.45;99.82;102259.66;5042274;28;20534;-76
2023/04/20 11:20:51;;;;;;;1.52;0.80;;;;;;;3.46;99.70;102256.34;5042264;28;20057;-77
2023/04/20 11:23:21;;;;;;;1.92;1.20;;;;;;;3.47;100.00;102254.69;5047203;28;20406;-76
2023/04/20 11:25:54;;;;;;;1.13;0.70;;;;;;;3.48;100.00;102256.47;5045927;28;20081;-75
2023/04/20 11:28:24;;;;;;;4.82;0.85;;;;;;;3.47;100.00;102260.69;5042321;28;20100;-75
2023/04/20 11:30:53;;;;;;;1.38;0.70;;;;;;;3.45;100.00;102254.56;5042602;28;20426;-76
2023/04/20 11:33:32;;;;;;;1.90;0.70;;;;;;;3.46;100.00;102251.25;5039142;28;20045;-77
2023/04/20 11:36:03;;;;;;;1.58;0.60;;;;;;;3.48;100.00;102256.47;5038475;28;20051;-76
2023/04/20 11:38:34;;;;;;;1.35;1.02;;;;;;;3.49;100.00;102255.72;5043107;28;20049;-76
2023/04/20 11:41:06;;;;;;;1.30;0.68;;;;;;;3.50;100.00;102252.38;5046585;28;20041;-76
2023/04/20 11:43:35;;;;;;;1.23;0.68;;;;;;;3.51;100.00;102249.06;5046243;28;20053;-77